createdAt,value
2022-11-02T00:01:21.036Z,100943.78
2022-11-02T00:03:48.445Z,100939.53
2022-11-02T00:06:15.016Z,100936.78
2022-11-02T00:08:41.654Z,100928.97
2022-11-02T00:11:08.505Z,100930.78
2022-11-02T00:13:35.076Z,100909.94
2022-11-02T00:16:04.619Z,100936.94
2022-11-02T00:18:32.704Z,100922.16
2022-11-02T00:20:59.477Z,100917.66
2022-11-02T00:23:26.040Z,100916.81
2022-11-02T00:25:54.291Z,100930.78
2022-11-02T00:28:20.950Z,100916.91
2022-11-02T00:30:47.731Z,100921.16
2022-11-02T00:33:14.402Z,100923.84
2022-11-02T00:35:42.186Z,100917.88
2022-11-02T00:38:08.911Z,100912.75
2022-11-02T00:40:36.158Z,100914.41
2022-11-02T00:43:03.294Z,100917.91
2022-11-02T00:45:29.866Z,100903.94
2022-11-02T00:47:56.405Z,100920.47
2022-11-02T00:50:22.974Z,100896.03
2022-11-02T00:52:49.580Z,100903.94
2022-11-02T00:55:18.026Z,100906.53
2022-11-02T00:57:45.020Z,100898.75
2022-11-02T01:00:12.499Z,100884.91
2022-11-02T01:02:39.601Z,100892.00
2022-11-02T01:05:07.843Z,100881.50
2022-11-02T01:07:35.160Z,100886.59
2022-11-02T01:10:02.147Z,100877.00
2022-11-02T01:12:28.743Z,100878.81
2022-11-02T01:14:55.304Z,100891.03
2022-11-02T01:17:21.909Z,100885.78
2022-11-02T01:19:50.469Z,100876.19
2022-11-02T01:22:17.906Z,100879.75
2022-11-02T01:24:44.462Z,100877.03
2022-11-02T01:27:11.046Z,100879.72
2022-11-02T01:29:37.593Z,100879.88
2022-11-02T01:32:04.327Z,100874.47
2022-11-02T01:34:31.027Z,100877.16
2022-11-02T01:36:57.639Z,100873.63
2022-11-02T01:39:24.179Z,100874.56
2022-11-02T01:41:52.582Z,100876.25
2022-11-02T01:44:37.486Z,100888.44
2022-11-02T01:47:35.506Z,100875.47
2022-11-02T01:50:27.686Z,100877.09
2022-11-02T01:52:54.528Z,100851.81
2022-11-02T01:55:29.381Z,100857.03
2022-11-02T01:58:01.527Z,100865.81
2022-11-02T02:00:28.325Z,100875.34
2022-11-02T02:03:02.264Z,100866.72
2022-11-02T02:05:30.797Z,100876.22
2022-11-02T02:07:58.005Z,100867.56
2022-11-02T02:10:24.803Z,100862.38
2022-11-02T02:12:51.603Z,100876.34
2022-11-02T02:15:25.277Z,100878.91
2022-11-02T02:18:16.408Z,100873.78
2022-11-02T02:21:02.750Z,100871.16
2022-11-02T02:23:48.149Z,100863.19
2022-11-02T02:26:21.669Z,100867.63
2022-11-02T02:29:34.462Z,100864.09
2022-11-02T02:32:13.023Z,100866.72
2022-11-02T02:34:53.533Z,100860.56
2022-11-02T02:37:27.925Z,100869.22
2022-11-02T02:40:11.216Z,100863.13
2022-11-02T02:42:47.281Z,100844.78
2022-11-02T02:45:33.093Z,100861.47
2022-11-02T02:48:14.651Z,100851.00
2022-11-02T02:50:49.055Z,100854.31
2022-11-02T02:53:23.241Z,100860.47
2022-11-02T02:55:51.785Z,100869.19
2022-11-02T02:58:22.966Z,100863.19
2022-11-02T03:00:49.805Z,100867.53
2022-11-02T03:03:20.762Z,100860.47
2022-11-02T03:06:26.371Z,100862.16
2022-11-02T03:09:34.413Z,100864.78
2022-11-02T03:12:36.491Z,100864.03
2022-11-02T03:15:16.699Z,100869.19
2022-11-02T03:17:55.770Z,100872.69
2022-11-02T03:20:30.710Z,100864.81
2022-11-02T03:23:19.098Z,100861.31
2022-11-02T03:26:04.442Z,100862.22
2022-11-02T03:28:56.758Z,100867.38
2022-11-02T03:31:47.265Z,100867.47
2022-11-02T03:34:16.494Z,100876.06
2022-11-02T03:36:57.109Z,100877.91
2022-11-02T03:39:38.138Z,100874.44
2022-11-02T03:42:07.291Z,100874.31
2022-11-02T03:44:39.197Z,100874.41
2022-11-02T03:47:11.360Z,100885.72
2022-11-02T03:49:42.031Z,100870.94
2022-11-02T03:52:14.144Z,100891.78
2022-11-02T03:54:51.909Z,100903.16
2022-11-02T03:57:23.778Z,100899.72
2022-11-02T03:59:50.871Z,100891.84
2022-11-02T04:02:19.667Z,100895.28
2022-11-02T04:04:49.997Z,100904.03
2022-11-02T04:07:24.926Z,100904.91
2022-11-02T04:09:51.638Z,100902.22
2022-11-02T04:12:36.974Z,100905.69
2022-11-02T04:15:03.802Z,100911.84
2022-11-02T04:17:49.123Z,100910.19
2022-11-02T04:20:16.752Z,100916.13
2022-11-02T04:23:02.259Z,100911.09
2022-11-02T04:25:28.898Z,100913.72
2022-11-02T04:28:22.068Z,100915.44
2022-11-02T04:31:02.251Z,100923.41
2022-11-02T04:33:35.050Z,100915.41
2022-11-02T04:36:08.958Z,100924.03
2022-11-02T04:38:40.462Z,100921.44
2022-11-02T04:41:39.025Z,100928.47
2022-11-02T04:44:11.136Z,100927.56
2022-11-02T04:46:39.595Z,100925.84
2022-11-02T04:49:08.533Z,100926.66
2022-11-02T04:51:36.605Z,100926.66
2022-11-02T04:54:03.951Z,100920.69
2022-11-02T04:56:32.063Z,100922.38
2022-11-02T04:59:00.363Z,100935.38
2022-11-02T05:01:29.893Z,100932.81
2022-11-02T05:03:59.033Z,100924.94
2022-11-02T05:06:27.603Z,100928.50
2022-11-02T05:08:55.482Z,100921.53
2022-11-02T05:11:23.312Z,100908.47
2022-11-02T05:13:50.731Z,100920.75
2022-11-02T05:16:18.801Z,100927.72
2022-11-02T05:18:46.453Z,100931.09
2022-11-02T05:21:15.420Z,100926.78
2022-11-02T05:23:42.177Z,100930.31
2022-11-02T05:26:12.031Z,100924.19
2022-11-02T05:28:42.406Z,100925.88
2022-11-02T05:31:09.146Z,100934.50
2022-11-02T05:33:36.810Z,100923.19
2022-11-02T05:36:11.032Z,100932.75
2022-11-02T05:41:12.456Z,100944.91
2022-11-02T05:43:40.329Z,100935.34
2022-11-02T05:46:10.543Z,100932.66
2022-11-02T05:48:37.059Z,100933.66
2022-11-02T05:51:04.539Z,100937.13
2022-11-02T05:53:33.731Z,100944.09
2022-11-02T05:56:01.981Z,100937.09
2022-11-02T05:58:29.522Z,100952.69
2022-11-02T06:01:02.744Z,100955.41
2022-11-02T06:03:30.177Z,100956.19
2022-11-02T06:05:58.084Z,100970.03
2022-11-02T06:08:24.945Z,100960.53
2022-11-02T06:10:51.670Z,100959.56
2022-11-02T06:13:18.301Z,100972.63
2022-11-02T06:15:44.930Z,100977.06
2022-11-02T06:18:11.591Z,100978.72
2022-11-02T06:20:38.216Z,100982.25
2022-11-02T06:23:04.870Z,100983.06
2022-11-02T06:25:31.706Z,100993.50
2022-11-02T06:27:58.536Z,100997.97
2022-11-02T06:30:29.057Z,100994.47
2022-11-02T06:32:55.765Z,100994.50
2022-11-02T06:35:23.035Z,101009.16
2022-11-02T06:37:49.659Z,100997.13
2022-11-02T06:40:18.334Z,101011.88
2022-11-02T06:42:56.727Z,101022.38
2022-11-02T06:45:33.711Z,101024.16
2022-11-02T06:48:00.332Z,101025.91
2022-11-02T06:50:26.904Z,101017.22
2022-11-02T06:52:53.425Z,101037.16
2022-11-02T06:55:20.094Z,101035.50
2022-11-02T06:57:46.637Z,101033.75
2022-11-02T07:00:20.917Z,101050.41
2022-11-02T07:03:07.963Z,101044.25
2022-11-02T07:05:36.950Z,101053.63
2022-11-02T07:08:04.370Z,101057.22
2022-11-02T07:10:31.540Z,101045.94
2022-11-02T07:12:58.734Z,101061.72
2022-11-02T07:15:26.507Z,101070.31
2022-11-02T07:17:53.521Z,101081.81
2022-11-02T07:20:20.549Z,101077.41
2022-11-02T07:22:58.047Z,101067.81
2022-11-02T07:25:27.108Z,101086.06
2022-11-02T07:27:54.944Z,101081.50
2022-11-02T07:30:21.561Z,101085.16
2022-11-02T07:32:48.546Z,101092.88
2022-11-02T07:35:16.429Z,101093.88
2022-11-02T07:37:43.104Z,101100.69
2022-11-02T07:40:11.826Z,101105.06
2022-11-02T07:42:46.487Z,101099.03
2022-11-02T07:45:15.704Z,101119.81
2022-11-02T07:47:44.307Z,101115.56
2022-11-02T07:50:12.469Z,101116.44
2022-11-02T07:52:52.785Z,101104.53
2022-11-02T07:55:21.745Z,101120.00
2022-11-02T07:57:57.712Z,101128.78
2022-11-02T08:00:26.246Z,101140.16
2022-11-02T08:03:01.002Z,101151.66
2022-11-02T08:05:29.417Z,101156.84
2022-11-02T08:08:04.639Z,101163.59
2022-11-02T08:10:35.494Z,101155.78
2022-11-02T08:13:12.281Z,101155.91
2022-11-02T08:15:38.939Z,101154.91
2022-11-02T08:18:12.947Z,101167.06
2022-11-02T08:20:39.576Z,101160.97
2022-11-02T08:23:07.739Z,101163.69
2022-11-02T08:25:35.386Z,101169.66
2022-11-02T08:28:02.365Z,101169.94
2022-11-02T08:30:30.541Z,101174.00
2022-11-02T08:33:04.526Z,101174.00
2022-11-02T08:35:31.294Z,101173.16
2022-11-02T08:37:59.867Z,101182.84
2022-11-02T08:40:27.149Z,101190.72
2022-11-02T08:43:04.602Z,101181.25
2022-11-02T08:46:08.514Z,101192.50
2022-11-02T08:48:19.148Z,101198.88
2022-11-02T08:50:45.715Z,101199.72
2022-11-02T08:53:12.267Z,101202.91
2022-11-02T08:55:38.875Z,101197.88
2022-11-02T08:58:05.905Z,101197.91
2022-11-02T09:00:34.405Z,101197.03
2022-11-02T09:03:02.255Z,101191.06
2022-11-02T09:05:30.586Z,101202.38
2022-11-02T09:08:01.669Z,101212.13
2022-11-02T09:10:30.611Z,101194.59
2022-11-02T09:12:59.649Z,101231.81
2022-11-02T09:15:27.462Z,101225.09
2022-11-02T09:17:54.324Z,101226.06
2022-11-02T09:20:22.362Z,101230.31
2022-11-02T09:22:49.627Z,101230.19
2022-11-02T09:25:16.648Z,101243.44
2022-11-02T09:27:43.602Z,101247.63
2022-11-02T09:30:12.625Z,101226.78
2022-11-02T09:32:39.732Z,101258.19
2022-11-02T09:35:09.816Z,101257.25
2022-11-02T09:37:36.921Z,101258.00
2022-11-02T09:40:05.292Z,101258.97
2022-11-02T09:42:54.823Z,101254.72
2022-11-02T09:45:21.743Z,101254.84
2022-11-02T09:48:15.757Z,101263.59
2022-11-02T09:50:54.272Z,101263.00
2022-11-02T09:53:37.730Z,101263.88
2022-11-02T09:56:05.551Z,101274.50
2022-11-02T09:58:40.458Z,101285.63
2022-11-02T10:01:28.364Z,101272.44
2022-11-02T10:04:30.859Z,101282.94
2022-11-02T10:07:35.256Z,101282.72
2022-11-02T10:10:15.644Z,101284.44
2022-11-02T10:13:01.282Z,101284.53
2022-11-02T10:15:45.020Z,101290.75
2022-11-02T10:18:24.589Z,101295.28
2022-11-02T10:20:53.260Z,101296.41
2022-11-02T10:23:35.629Z,101311.16
2022-11-02T10:26:03.082Z,101300.50
2022-11-02T10:28:35.993Z,101309.28
2022-11-02T10:31:15.852Z,101317.19
2022-11-02T10:33:42.482Z,101310.97
2022-11-02T10:36:18.244Z,101325.66
2022-11-02T10:39:04.473Z,101318.50
2022-11-02T10:41:44.298Z,101308.19
2022-11-02T10:44:34.599Z,101310.94
2022-11-02T10:47:33.381Z,101316.16
2022-11-02T10:50:33.719Z,101329.44
2022-11-02T10:53:20.421Z,101313.56
2022-11-02T10:55:57.909Z,101323.47
2022-11-02T10:58:27.942Z,101327.09
2022-11-02T11:01:11.954Z,101330.66
2022-11-02T11:04:05.181Z,101331.47
2022-11-02T11:06:36.743Z,101335.19
2022-11-02T11:09:07.400Z,101334.22
2022-11-02T11:11:37.718Z,101340.31
2022-11-02T11:19:53.057Z,101355.34
2022-11-02T11:22:30.198Z,101358.03
2022-11-02T11:25:12.071Z,101355.41
2022-11-02T11:27:47.579Z,101350.97
2022-11-02T11:33:19.358Z,101353.50
2022-11-02T11:35:49.533Z,101367.59
2022-11-02T11:38:19.933Z,101355.38
2022-11-02T11:40:53.615Z,101348.34
2022-11-02T11:43:25.948Z,101359.81
2022-11-02T11:46:06.817Z,101366.88
2022-11-02T11:48:46.392Z,101367.72
2022-11-02T11:51:31.198Z,101368.56
2022-11-02T11:54:19.313Z,101361.50
2022-11-02T11:56:47.240Z,101365.78
2022-11-02T11:59:24.338Z,101364.91
2022-11-02T12:02:01.515Z,101365.00
2022-11-02T12:04:28.320Z,101364.09
2022-11-02T12:07:39.126Z,101367.59
2022-11-02T12:10:25.972Z,101370.25
2022-11-02T12:13:20.261Z,101362.22
2022-11-02T12:16:07.051Z,101366.56
2022-11-02T12:21:53.942Z,101359.66
2022-11-02T12:24:29.593Z,101352.78
2022-11-02T12:27:11.257Z,101350.13
2022-11-02T12:29:59.820Z,101359.72
2022-11-02T12:35:50.379Z,101348.38
2022-11-02T12:38:42.840Z,101359.88
2022-11-02T12:41:12.720Z,101358.94
2022-11-02T12:43:49.414Z,101347.63
2022-11-02T12:46:20.520Z,101353.75
2022-11-02T12:48:58.131Z,101350.28
2022-11-02T12:51:30.566Z,101351.97
2022-11-02T12:54:41.518Z,101364.25
2022-11-02T12:57:19.802Z,101355.50
2022-11-02T12:59:57.417Z,101345.84
2022-11-02T13:02:32.912Z,101367.78
2022-11-02T13:05:14.622Z,101342.41
2022-11-02T13:07:50.345Z,101364.31
2022-11-02T13:10:28.232Z,101365.88
2022-11-02T13:13:00.540Z,101361.56
2022-11-02T13:15:31.794Z,101358.09
2022-11-02T13:18:14.535Z,101350.94
2022-11-02T13:20:57.701Z,101374.53
2022-11-02T13:23:37.161Z,101369.25
2022-11-02T13:26:57.120Z,101328.09
2022-11-02T13:33:39.666Z,101366.78
2022-11-02T13:36:07.226Z,101329.16
2022-11-02T13:38:47.118Z,101361.50
2022-11-02T13:45:35.237Z,101353.66
2022-11-02T13:48:14.662Z,101345.75
2022-11-02T13:50:47.365Z,101343.88
2022-11-02T13:53:46.296Z,101371.13
2022-11-02T13:59:43.327Z,101369.34
2022-11-02T14:03:18.964Z,101360.69
2022-11-02T14:06:21.703Z,101290.66
2022-11-02T14:09:28.108Z,101368.47
2022-11-02T14:12:24.366Z,101363.28
2022-11-02T14:15:23.499Z,101371.19
2022-11-02T14:18:41.638Z,101369.38
2022-11-02T14:21:45.908Z,101373.78
2022-11-02T14:24:40.762Z,101377.31
2022-11-02T14:27:22.886Z,101368.47
2022-11-02T14:30:03.178Z,101325.53
2022-11-02T14:39:59.765Z,101369.34
2022-11-02T14:43:12.984Z,101365.00
2022-11-02T14:46:16.529Z,101314.25
2022-11-02T14:48:50.926Z,101337.81
2022-11-02T14:51:36.921Z,101346.50
2022-11-02T14:54:24.707Z,101304.34
2022-11-02T14:57:46.044Z,101272.00
2022-11-02T15:00:22.031Z,101331.63
2022-11-02T15:03:01.002Z,101356.97
2022-11-02T15:05:45.995Z,101359.66
2022-11-02T15:08:36.915Z,101367.50
2022-11-02T15:11:51.564Z,101355.22
2022-11-02T15:14:56.095Z,101344.81
2022-11-02T15:17:47.680Z,101359.66
2022-11-02T15:20:47.759Z,101353.47
2022-11-02T15:23:31.282Z,101351.56
2022-11-02T15:26:18.178Z,101315.53
2022-11-02T15:29:10.646Z,101352.34
2022-11-02T15:31:50.215Z,101352.38
2022-11-02T15:34:45.143Z,101352.28
2022-11-02T15:37:37.343Z,101352.31
2022-11-02T15:40:49.481Z,101342.66
2022-11-02T15:44:15.578Z,101343.34
2022-11-02T15:47:16.720Z,101343.41
2022-11-02T15:51:13.836Z,101286.41
2022-11-02T15:54:30.281Z,101313.47
2022-11-02T15:57:48.706Z,101291.63
2022-11-02T16:04:29.087Z,101339.09
2022-11-02T16:07:16.459Z,101341.63
2022-11-02T16:10:01.131Z,101279.31
2022-11-02T16:13:00.533Z,101351.19
2022-11-02T16:15:52.949Z,101273.16
2022-11-02T16:19:11.416Z,101277.53
2022-11-02T16:22:01.114Z,101340.47
2022-11-02T16:25:33.868Z,101336.88
2022-11-02T16:29:04.434Z,101304.34
2022-11-02T16:31:55.095Z,101344.63
2022-11-02T16:34:42.450Z,101340.97
2022-11-02T16:37:36.275Z,101315.53
2022-11-02T16:40:15.891Z,101352.16
2022-11-02T16:42:53.633Z,101339.78
2022-11-02T16:45:43.155Z,101352.09
2022-11-02T16:48:25.923Z,101317.91
2022-11-02T16:51:22.710Z,101346.56
2022-11-02T16:54:29.349Z,101348.13
2022-11-02T16:57:11.701Z,101350.66
2022-11-02T17:04:14.500Z,101315.34
2022-11-02T17:10:27.595Z,101310.84
2022-11-02T17:13:24.539Z,101318.63
2022-11-02T17:25:31.344Z,101347.31
2022-11-02T17:29:15.109Z,101342.53
2022-11-02T17:35:29.564Z,101296.69
2022-11-02T17:38:19.100Z,101299.28
2022-11-02T17:45:52.877Z,101344.66
2022-11-02T17:48:44.097Z,101344.38
2022-11-02T17:54:00.606Z,101337.25
2022-11-02T17:56:42.225Z,101308.31
2022-11-02T18:03:58.000Z,101337.88
2022-11-02T18:06:28.425Z,101336.69
2022-11-02T18:09:23.159Z,101338.50
2022-11-02T18:12:04.328Z,101301.13
2022-11-02T18:15:03.195Z,101288.31
2022-11-02T18:18:17.915Z,101257.38
2022-11-02T18:22:02.657Z,101327.50
2022-11-02T18:25:18.385Z,101336.97
2022-11-02T18:28:11.167Z,101285.97
2022-11-02T18:30:58.618Z,101325.66
2022-11-02T18:33:47.724Z,101316.84
2022-11-02T18:36:44.998Z,101250.06
2022-11-02T18:39:58.191Z,101316.13
2022-11-02T18:42:47.383Z,101267.69
2022-11-02T18:45:15.925Z,101312.63
2022-11-02T18:47:42.836Z,101313.50
2022-11-02T18:50:12.372Z,101309.03
2022-11-02T18:52:39.466Z,101298.50
2022-11-02T18:55:06.684Z,101292.47
2022-11-02T18:57:33.332Z,101302.88
2022-11-02T19:00:02.453Z,101305.66
2022-11-02T19:02:29.711Z,101297.03
2022-11-02T19:04:56.608Z,101288.94
2022-11-02T19:07:41.887Z,101290.63
2022-11-02T19:10:09.706Z,101292.38
2022-11-02T19:12:36.604Z,101281.91
2022-11-02T19:15:04.303Z,101280.81
2022-11-02T19:17:31.431Z,101283.38
2022-11-02T19:20:06.300Z,101276.59
2022-11-02T19:22:35.926Z,101273.59
2022-11-02T19:25:06.394Z,101274.53
2022-11-02T19:27:34.367Z,101274.50
2022-11-02T19:30:02.664Z,101282.78
2022-11-02T19:32:32.491Z,101276.19
2022-11-02T19:34:59.084Z,101257.75
2022-11-02T19:37:26.060Z,101256.78
2022-11-02T19:39:57.874Z,101272.00
2022-11-02T19:42:29.879Z,101276.66
2022-11-02T19:44:57.579Z,101276.50
2022-11-02T19:47:28.261Z,101272.22
2022-11-02T19:49:56.084Z,101272.28
2022-11-02T19:52:25.546Z,101268.13
2022-11-02T19:54:55.730Z,101264.56
2022-11-02T19:57:22.390Z,101270.13
2022-11-02T19:59:49.034Z,101265.25
2022-11-02T20:02:18.579Z,101270.53
2022-11-02T20:04:45.470Z,101267.00
2022-11-02T20:07:12.036Z,101269.53
2022-11-02T20:09:38.589Z,101266.88
2022-11-02T20:12:07.487Z,101257.16
2022-11-02T20:14:36.327Z,101262.81
2022-11-02T20:17:29.767Z,101266.38
2022-11-02T20:19:49.472Z,101257.72
2022-11-02T20:22:18.174Z,101262.00
2022-11-02T20:24:44.708Z,101257.59
2022-11-02T20:27:12.749Z,101243.72
2022-11-02T20:29:40.518Z,101251.16
2022-11-02T20:32:10.179Z,101243.47
2022-11-02T20:34:36.717Z,101250.47
2022-11-02T20:37:05.007Z,101236.34
2022-11-02T20:39:31.604Z,101240.50
2022-11-02T20:41:58.143Z,101234.25
2022-11-02T20:44:25.017Z,101235.09
2022-11-02T20:46:53.270Z,101230.19
2022-11-02T20:49:36.351Z,101218.38
2022-11-02T20:52:07.979Z,101216.53
2022-11-02T20:54:34.522Z,101210.38
2022-11-02T20:57:01.351Z,101216.53
2022-11-02T20:59:27.926Z,101214.09
2022-11-02T21:01:54.571Z,101221.84
2022-11-02T21:04:21.897Z,101208.91
2022-11-02T21:06:51.882Z,101211.53
2022-11-02T21:09:19.149Z,101197.63
2022-11-02T21:12:04.446Z,101200.19
2022-11-02T21:14:31.123Z,101198.72
2022-11-02T21:16:57.781Z,101194.34
2022-11-02T21:19:24.395Z,101190.84
2022-11-02T21:21:55.104Z,101182.13
2022-11-02T21:24:24.773Z,101187.59
2022-11-02T21:26:51.532Z,101192.69
2022-11-02T21:29:18.150Z,101180.34
2022-11-02T21:31:45.306Z,101172.81
2022-11-02T21:34:11.845Z,101178.16
2022-11-02T21:36:40.574Z,101171.16
2022-11-02T21:39:07.660Z,101177.56
2022-11-02T21:41:38.349Z,101161.78
2022-11-02T21:44:06.915Z,101172.44
2022-11-02T21:46:33.444Z,101160.09
2022-11-02T21:49:00.010Z,101166.22
2022-11-02T21:51:26.809Z,101157.66
2022-11-02T21:53:53.467Z,101155.81
2022-11-02T21:56:22.976Z,101156.69
2022-11-02T21:58:49.646Z,101159.56
2022-11-02T22:01:35.080Z,101155.47
2022-11-02T22:04:02.415Z,101150.38
2022-11-02T22:06:31.468Z,101154.38
2022-11-02T22:08:59.363Z,101157.44
2022-11-02T22:11:29.233Z,101152.09
2022-11-02T22:13:58.176Z,101148.44
2022-11-02T22:16:36.471Z,101147.72
2022-11-02T22:19:08.174Z,101150.34
2022-11-02T22:21:37.872Z,101148.50
2022-11-02T22:24:05.596Z,101144.53
2022-11-02T22:26:34.779Z,101135.69
2022-11-02T22:29:01.891Z,101132.84
2022-11-02T22:31:31.586Z,101138.31
2022-11-02T22:34:00.644Z,101132.97
2022-11-02T22:36:29.558Z,101130.97
2022-11-02T22:38:58.508Z,101126.88
2022-11-02T22:41:25.756Z,101126.28
2022-11-02T22:43:57.926Z,101119.56
2022-11-02T22:46:26.505Z,101114.44
2022-11-02T22:48:55.391Z,101115.28
2022-11-02T22:51:24.804Z,101116.75
2022-11-02T22:53:51.701Z,101110.00
2022-11-02T22:56:20.866Z,101112.28
2022-11-02T22:58:48.433Z,101106.94
2022-11-02T23:01:20.985Z,101099.13
2022-11-02T23:03:48.415Z,101089.25
2022-11-02T23:06:16.126Z,101086.25
2022-11-02T23:08:45.755Z,101087.34
2022-11-02T23:11:22.627Z,101088.91
2022-11-02T23:14:04.179Z,101091.28
2022-11-02T23:16:46.801Z,101075.81
2022-11-02T23:19:30.925Z,101079.34
2022-11-02T23:22:19.288Z,101082.88
2022-11-02T23:25:09.807Z,101084.41
2022-11-02T23:27:58.922Z,101077.22
2022-11-02T23:30:49.659Z,101072.84
2022-11-02T23:33:16.742Z,101060.44
2022-11-02T23:36:02.301Z,101057.66
2022-11-02T23:38:49.132Z,101052.75
2022-11-02T23:41:16.944Z,101058.06
2022-11-02T23:43:43.559Z,101052.00
2022-11-02T23:46:10.405Z,101049.09
2022-11-02T23:48:36.927Z,101045.84
2022-11-02T23:51:22.654Z,101041.50
2022-11-02T23:54:07.418Z,101039.88
2022-11-02T23:56:43.433Z,101038.00
2022-11-02T23:59:11.552Z,101051.09
